sensor_id;sensor_type;location;lat;lon;timestamp;pressure;altitude;pressure_sealevel;temperature;humidity
41596;BME280;27283;52.504;13.358;2023-01-25T00:01:29;103480.44;;;3.98;63.45
41596;BME280;27283;52.504;13.358;2023-01-25T00:04:04;103475.41;;;4.39;62.06
41596;BME280;27283;52.504;13.358;2023-01-25T00:06:36;103462.75;;;4.21;63.03
41596;BME280;27283;52.504;13.358;2023-01-25T00:09:09;103458.97;;;4.03;63.15
41596;BME280;27283;52.504;13.358;2023-01-25T00:11:41;103445.00;;;4.21;63.08
41596;BME280;27283;52.504;13.358;2023-01-25T00:14:15;103443.00;;;4.26;62.98
41596;BME280;27283;52.504;13.358;2023-01-25T00:16:47;103441.91;;;4.08;63.41
41596;BME280;27283;52.504;13.358;2023-01-25T00:19:22;103437.16;;;3.68;64.60
41596;BME280;27283;52.504;13.358;2023-01-25T00:21:54;103443.69;;;3.59;65.23
41596;BME280;27283;52.504;13.358;2023-01-25T00:24:26;103433.13;;;4.06;63.96
41596;BME280;27283;52.504;13.358;2023-01-25T00:26:58;103429.34;;;4.12;63.46
41596;BME280;27283;52.504;13.358;2023-01-25T00:29:30;103411.66;;;4.11;63.25
41596;BME280;27283;52.504;13.358;2023-01-25T00:32:27;103408.72;;;4.41;62.27
41596;BME280;27283;52.504;13.358;2023-01-25T00:35:03;103399.69;;;3.74;64.07
41596;BME280;27283;52.504;13.358;2023-01-25T00:37:38;103390.16;;;3.92;65.22
41596;BME280;27283;52.504;13.358;2023-01-25T00:40:11;103383.13;;;3.91;64.38
41596;BME280;27283;52.504;13.358;2023-01-25T00:42:44;103376.84;;;3.92;64.89
41596;BME280;27283;52.504;13.358;2023-01-25T00:45:15;103364.38;;;4.16;63.99
41596;BME280;27283;52.504;13.358;2023-01-25T00:47:47;103356.22;;;4.21;64.22
41596;BME280;27283;52.504;13.358;2023-01-25T00:50:21;103356.91;;;4.48;63.20
41596;BME280;27283;52.504;13.358;2023-01-25T00:52:53;103342.53;;;4.52;62.82
41596;BME280;27283;52.504;13.358;2023-01-25T00:55:24;103347.59;;;4.38;63.44
41596;BME280;27283;52.504;13.358;2023-01-25T00:57:56;103349.91;;;4.23;64.33
41596;BME280;27283;52.504;13.358;2023-01-25T01:00:30;103346.31;;;4.69;63.30
41596;BME280;27283;52.504;13.358;2023-01-25T01:03:03;103356.44;;;4.60;62.49
41596;BME280;27283;52.504;13.358;2023-01-25T01:05:37;103349.63;;;4.53;63.60
41596;BME280;27283;52.504;13.358;2023-01-25T01:08:14;103354.50;;;4.42;63.43
41596;BME280;27283;52.504;13.358;2023-01-25T01:10:46;103367.63;;;4.24;63.79
41596;BME280;27283;52.504;13.358;2023-01-25T01:13:18;103369.09;;;3.86;65.31
41596;BME280;27283;52.504;13.358;2023-01-25T01:15:49;103374.13;;;3.94;64.83
41596;BME280;27283;52.504;13.358;2023-01-25T01:18:21;103375.38;;;4.31;64.04
41596;BME280;27283;52.504;13.358;2023-01-25T01:20:55;103371.84;;;4.52;63.32
41596;BME280;27283;52.504;13.358;2023-01-25T01:23:31;103355.31;;;4.44;63.63
41596;BME280;27283;52.504;13.358;2023-01-25T01:26:04;103365.03;;;4.67;62.86
41596;BME280;27283;52.504;13.358;2023-01-25T01:28:36;103363.03;;;4.28;64.01
41596;BME280;27283;52.504;13.358;2023-01-25T01:31:12;103364.59;;;4.56;63.48
41596;BME280;27283;52.504;13.358;2023-01-25T01:33:48;103365.28;;;4.61;63.60
41596;BME280;27283;52.504;13.358;2023-01-25T01:36:25;103357.47;;;4.34;64.55
41596;BME280;27283;52.504;13.358;2023-01-25T01:38:58;103366.94;;;4.19;64.49
41596;BME280;27283;52.504;13.358;2023-01-25T01:41:29;103353.84;;;3.91;65.65
41596;BME280;27283;52.504;13.358;2023-01-25T01:44:01;103350.19;;;3.70;67.04
41596;BME280;27283;52.504;13.358;2023-01-25T01:46:34;103348.22;;;3.99;66.50
41596;BME280;27283;52.504;13.358;2023-01-25T01:49:12;103346.34;;;4.01;66.06
41596;BME280;27283;52.504;13.358;2023-01-25T01:51:52;103349.59;;;3.85;66.14
41596;BME280;27283;52.504;13.358;2023-01-25T01:54:32;103352.84;;;3.94;66.64
41596;BME280;27283;52.504;13.358;2023-01-25T01:57:08;103344.59;;;4.00;66.05
41596;BME280;27283;52.504;13.358;2023-01-25T01:59:46;103344.38;;;4.06;66.57
41596;BME280;27283;52.504;13.358;2023-01-25T02:02:20;103339.88;;;4.30;65.13
41596;BME280;27283;52.504;13.358;2023-01-25T02:04:57;103343.53;;;4.28;65.62
41596;BME280;27283;52.504;13.358;2023-01-25T02:07:34;103342.81;;;4.46;64.72
41596;BME280;27283;52.504;13.358;2023-01-25T02:10:09;103346.25;;;4.48;65.04
41596;BME280;27283;52.504;13.358;2023-01-25T02:12:43;103339.63;;;4.58;63.97
41596;BME280;27283;52.504;13.358;2023-01-25T02:15:15;103338.50;;;4.42;64.17
41596;BME280;27283;52.504;13.358;2023-01-25T02:17:48;103335.16;;;4.15;64.99
41596;BME280;27283;52.504;13.358;2023-01-25T02:20:27;103335.44;;;4.31;64.57
41596;BME280;27283;52.504;13.358;2023-01-25T02:23:08;103333.38;;;4.82;63.52
41596;BME280;27283;52.504;13.358;2023-01-25T02:25:45;103322.03;;;4.54;63.75
41596;BME280;27283;52.504;13.358;2023-01-25T02:28:19;103327.41;;;4.08;65.08
41596;BME280;27283;52.504;13.358;2023-01-25T02:30:53;103327.84;;;3.74;66.78
41596;BME280;27283;52.504;13.358;2023-01-25T02:33:27;103322.44;;;3.99;66.50
41596;BME280;27283;52.504;13.358;2023-01-25T02:36:11;103326.25;;;4.16;65.98
41596;BME280;27283;52.504;13.358;2023-01-25T02:38:51;103322.88;;;3.65;67.50
41596;BME280;27283;52.504;13.358;2023-01-25T02:41:31;103330.09;;;3.85;67.14
41596;BME280;27283;52.504;13.358;2023-01-25T02:44:06;103320.38;;;3.60;67.54
41596;BME280;27283;52.504;13.358;2023-01-25T02:46:42;103316.34;;;4.19;65.39
41596;BME280;27283;52.504;13.358;2023-01-25T02:49:17;103314.00;;;4.34;65.52
41596;BME280;27283;52.504;13.358;2023-01-25T02:51:50;103312.03;;;4.17;65.34
41596;BME280;27283;52.504;13.358;2023-01-25T02:54:26;103314.34;;;4.69;64.45
41596;BME280;27283;52.504;13.358;2023-01-25T02:57:02;103314.84;;;4.34;64.42
41596;BME280;27283;52.504;13.358;2023-01-25T02:59:34;103317.84;;;4.49;64.94
41596;BME280;27283;52.504;13.358;2023-01-25T03:02:06;103312.13;;;4.58;64.88
41596;BME280;27283;52.504;13.358;2023-01-25T03:04:38;103306.53;;;4.64;64.54
41596;BME280;27283;52.504;13.358;2023-01-25T03:07:10;103304.06;;;4.80;64.12
41596;BME280;27283;52.504;13.358;2023-01-25T03:09:42;103303.31;;;4.56;64.51
41596;BME280;27283;52.504;13.358;2023-01-25T03:12:16;103302.91;;;4.44;65.26
41596;BME280;27283;52.504;13.358;2023-01-25T03:14:48;103302.03;;;4.44;65.57
41596;BME280;27283;52.504;13.358;2023-01-25T03:17:20;103301.47;;;4.78;65.50
41596;BME280;27283;52.504;13.358;2023-01-25T03:19:52;103301.94;;;4.68;65.25
41596;BME280;27283;52.504;13.358;2023-01-25T03:22:24;103291.22;;;4.69;65.03
41596;BME280;27283;52.504;13.358;2023-01-25T03:24:56;103297.81;;;4.81;64.76
41596;BME280;27283;52.504;13.358;2023-01-25T03:27:31;103287.44;;;4.53;65.52
41596;BME280;27283;52.504;13.358;2023-01-25T03:30:03;103281.44;;;4.70;65.70
41596;BME280;27283;52.504;13.358;2023-01-25T03:32:36;103278.69;;;4.92;65.08
41596;BME280;27283;52.504;13.358;2023-01-25T03:35:08;103281.22;;;4.95;64.59
41596;BME280;27283;52.504;13.358;2023-01-25T03:37:40;103282.19;;;4.94;64.09
41596;BME280;27283;52.504;13.358;2023-01-25T03:40:12;103278.13;;;4.63;64.93
41596;BME280;27283;52.504;13.358;2023-01-25T03:42:47;103277.63;;;4.75;64.69
41596;BME280;27283;52.504;13.358;2023-01-25T03:45:21;103279.84;;;4.43;66.01
41596;BME280;27283;52.504;13.358;2023-01-25T03:47:53;103279.97;;;4.83;64.32
41596;BME280;27283;52.504;13.358;2023-01-25T03:50:25;103279.16;;;4.60;65.35
41596;BME280;27283;52.504;13.358;2023-01-25T03:52:57;103276.38;;;4.41;65.83
41596;BME280;27283;52.504;13.358;2023-01-25T03:55:34;103263.97;;;4.83;64.39
41596;BME280;27283;52.504;13.358;2023-01-25T03:58:10;103259.63;;;5.01;63.74
41596;BME280;27283;52.504;13.358;2023-01-25T04:00:41;103260.56;;;4.59;65.03
41596;BME280;27283;52.504;13.358;2023-01-25T04:03:13;103262.56;;;4.74;64.73
41596;BME280;27283;52.504;13.358;2023-01-25T04:05:50;103256.44;;;4.93;64.21
41596;BME280;27283;52.504;13.358;2023-01-25T04:08:22;103249.22;;;4.95;64.59
41596;BME280;27283;52.504;13.358;2023-01-25T04:10:58;103244.78;;;4.75;64.88
41596;BME280;27283;52.504;13.358;2023-01-25T04:13:35;103232.94;;;5.01;64.17
41596;BME280;27283;52.504;13.358;2023-01-25T04:16:09;103235.38;;;4.66;65.14
41596;BME280;27283;52.504;13.358;2023-01-25T04:18:41;103229.34;;;4.20;66.54
41596;BME280;27283;52.504;13.358;2023-01-25T04:21:13;103221.38;;;4.61;65.83
41596;BME280;27283;52.504;13.358;2023-01-25T04:23:46;103219.44;;;4.65;66.17
41596;BME280;27283;52.504;13.358;2023-01-25T04:26:17;103221.44;;;4.80;65.33
41596;BME280;27283;52.504;13.358;2023-01-25T04:28:54;103213.53;;;4.58;65.62
41596;BME280;27283;52.504;13.358;2023-01-25T04:31:25;103216.44;;;4.72;65.68
41596;BME280;27283;52.504;13.358;2023-01-25T04:33:57;103207.72;;;4.48;66.55
41596;BME280;27283;52.504;13.358;2023-01-25T04:36:29;103215.13;;;4.83;65.80
41596;BME280;27283;52.504;13.358;2023-01-25T04:39:16;103207.50;;;4.53;66.49
41596;BME280;27283;52.504;13.358;2023-01-25T04:41:47;103199.78;;;4.88;65.65
41596;BME280;27283;52.504;13.358;2023-01-25T04:44:22;103201.09;;;4.98;65.68
41596;BME280;27283;52.504;13.358;2023-01-25T04:46:57;103204.66;;;4.57;66.21
41596;BME280;27283;52.504;13.358;2023-01-25T04:49:30;103201.75;;;4.64;66.53
41596;BME280;27283;52.504;13.358;2023-01-25T04:52:02;103198.59;;;5.14;65.04
41596;BME280;27283;52.504;13.358;2023-01-25T04:54:34;103191.72;;;4.89;66.26
41596;BME280;27283;52.504;13.358;2023-01-25T04:57:08;103187.69;;;5.00;65.78
41596;BME280;27283;52.504;13.358;2023-01-25T04:59:44;103185.91;;;5.00;65.85
41596;BME280;27283;52.504;13.358;2023-01-25T05:02:21;103189.59;;;4.77;66.59
41596;BME280;27283;52.504;13.358;2023-01-25T05:05:16;103181.28;;;4.64;66.82
41596;BME280;27283;52.504;13.358;2023-01-25T05:07:48;103172.09;;;4.51;66.56
41596;BME280;27283;52.504;13.358;2023-01-25T05:10:20;103184.13;;;4.80;66.31
41596;BME280;27283;52.504;13.358;2023-01-25T05:12:52;103173.00;;;4.50;66.59
41596;BME280;27283;52.504;13.358;2023-01-25T05:15:27;103167.47;;;4.13;67.91
41596;BME280;27283;52.504;13.358;2023-01-25T05:17:59;103177.31;;;4.11;68.12
41596;BME280;27283;52.504;13.358;2023-01-25T05:20:31;103166.03;;;4.26;68.30
41596;BME280;27283;52.504;13.358;2023-01-25T05:23:02;103163.44;;;4.03;68.91
41596;BME280;27283;52.504;13.358;2023-01-25T05:25:35;103170.16;;;4.34;68.11
41596;BME280;27283;52.504;13.358;2023-01-25T05:28:23;103161.28;;;4.13;68.78
41596;BME280;27283;52.504;13.358;2023-01-25T05:31:02;103159.75;;;4.48;67.78
41596;BME280;27283;52.504;13.358;2023-01-25T05:33:35;103163.69;;;4.19;69.14
41596;BME280;27283;52.504;13.358;2023-01-25T05:36:07;103162.91;;;3.95;70.07
41596;BME280;27283;52.504;13.358;2023-01-25T05:38:40;103167.28;;;4.18;69.03
41596;BME280;27283;52.504;13.358;2023-01-25T05:41:12;103171.63;;;3.98;69.28
41596;BME280;27283;52.504;13.358;2023-01-25T05:43:47;103160.69;;;3.62;71.00
41596;BME280;27283;52.504;13.358;2023-01-25T05:46:22;103165.19;;;3.82;70.67
41596;BME280;27283;52.504;13.358;2023-01-25T05:48:53;103172.00;;;4.32;69.35
41596;BME280;27283;52.504;13.358;2023-01-25T05:51:25;103168.16;;;3.96;70.15
41596;BME280;27283;52.504;13.358;2023-01-25T05:53:56;103173.94;;;3.85;70.30
41596;BME280;27283;52.504;13.358;2023-01-25T05:56:28;103167.34;;;4.16;69.68
41596;BME280;27283;52.504;13.358;2023-01-25T05:59:01;103161.81;;;4.00;69.74
41596;BME280;27283;52.504;13.358;2023-01-25T06:01:35;103160.47;;;4.11;70.02
41596;BME280;27283;52.504;13.358;2023-01-25T06:04:07;103155.03;;;4.34;69.14
41596;BME280;27283;52.504;13.358;2023-01-25T06:06:40;103161.66;;;4.03;69.49
41596;BME280;27283;52.504;13.358;2023-01-25T06:09:12;103158.06;;;4.04;69.17
41596;BME280;27283;52.504;13.358;2023-01-25T06:11:46;103150.00;;;4.06;69.60
41596;BME280;27283;52.504;13.358;2023-01-25T06:14:18;103150.91;;;4.06;69.86
41596;BME280;27283;52.504;13.358;2023-01-25T06:16:54;103146.00;;;4.38;68.68
41596;BME280;27283;52.504;13.358;2023-01-25T06:19:27;103138.06;;;4.37;68.88
41596;BME280;27283;52.504;13.358;2023-01-25T06:21:58;103137.00;;;4.41;68.68
41596;BME280;27283;52.504;13.358;2023-01-25T06:24:30;103143.38;;;4.57;68.71
41596;BME280;27283;52.504;13.358;2023-01-25T06:27:03;103140.59;;;4.60;68.79
41596;BME280;27283;52.504;13.358;2023-01-25T06:29:34;103138.69;;;4.83;68.06
41596;BME280;27283;52.504;13.358;2023-01-25T06:32:32;103142.56;;;4.76;67.99
41596;BME280;27283;52.504;13.358;2023-01-25T06:35:07;103137.38;;;4.73;67.54
41596;BME280;27283;52.504;13.358;2023-01-25T06:37:40;103141.13;;;4.28;69.38
41596;BME280;27283;52.504;13.358;2023-01-25T06:40:12;103144.56;;;4.30;69.71
41596;BME280;27283;52.504;13.358;2023-01-25T06:42:44;103143.97;;;4.43;69.26
41596;BME280;27283;52.504;13.358;2023-01-25T06:45:16;103145.19;;;4.16;70.16
41596;BME280;27283;52.504;13.358;2023-01-25T06:47:51;103138.72;;;4.42;69.43
41596;BME280;27283;52.504;13.358;2023-01-25T06:50:22;103134.31;;;4.61;68.83
41596;BME280;27283;52.504;13.358;2023-01-25T06:52:55;103132.19;;;4.49;69.22
41596;BME280;27283;52.504;13.358;2023-01-25T06:55:28;103126.00;;;4.28;69.42
41596;BME280;27283;52.504;13.358;2023-01-25T06:58:00;103122.88;;;4.18;69.90
41596;BME280;27283;52.504;13.358;2023-01-25T07:00:32;103116.81;;;3.94;70.37
41596;BME280;27283;52.504;13.358;2023-01-25T07:03:07;103108.44;;;3.59;71.42
41596;BME280;27283;52.504;13.358;2023-01-25T07:05:39;103108.06;;;3.90;70.93
41596;BME280;27283;52.504;13.358;2023-01-25T07:08:21;103097.59;;;3.86;70.95
41596;BME280;27283;52.504;13.358;2023-01-25T07:11:08;103107.06;;;3.93;70.85
41596;BME280;27283;52.504;13.358;2023-01-25T07:13:42;103110.69;;;4.13;70.55
41596;BME280;27283;52.504;13.358;2023-01-25T07:16:17;103111.03;;;3.83;70.97
41596;BME280;27283;52.504;13.358;2023-01-25T07:18:52;103103.56;;;4.13;70.56
41596;BME280;27283;52.504;13.358;2023-01-25T07:21:24;103097.44;;;4.32;70.41
41596;BME280;27283;52.504;13.358;2023-01-25T07:23:59;103094.25;;;4.23;70.19
41596;BME280;27283;52.504;13.358;2023-01-25T07:26:35;103098.78;;;4.21;70.01
41596;BME280;27283;52.504;13.358;2023-01-25T07:29:08;103093.00;;;4.51;69.10
41596;BME280;27283;52.504;13.358;2023-01-25T07:31:42;103092.13;;;4.11;70.19
41596;BME280;27283;52.504;13.358;2023-01-25T07:34:17;103086.78;;;4.32;70.27
41596;BME280;27283;52.504;13.358;2023-01-25T07:36:49;103092.72;;;4.18;71.27
41596;BME280;27283;52.504;13.358;2023-01-25T07:39:21;103086.03;;;4.49;69.65
41596;BME280;27283;52.504;13.358;2023-01-25T07:41:53;103081.91;;;4.62;69.11
41596;BME280;27283;52.504;13.358;2023-01-25T07:44:25;103080.78;;;4.47;69.92
41596;BME280;27283;52.504;13.358;2023-01-25T07:46:56;103082.81;;;4.61;69.83
41596;BME280;27283;52.504;13.358;2023-01-25T07:49:31;103079.03;;;4.67;69.19
41596;BME280;27283;52.504;13.358;2023-01-25T07:52:03;103068.59;;;4.41;69.63
41596;BME280;27283;52.504;13.358;2023-01-25T07:54:36;103075.97;;;4.35;70.42
41596;BME280;27283;52.504;13.358;2023-01-25T07:57:08;103077.03;;;4.51;70.17
41596;BME280;27283;52.504;13.358;2023-01-25T07:59:39;103070.19;;;4.46;70.38
41596;BME280;27283;52.504;13.358;2023-01-25T08:02:11;103070.91;;;4.49;70.22
41596;BME280;27283;52.504;13.358;2023-01-25T08:04:46;103066.69;;;4.24;70.77
41596;BME280;27283;52.504;13.358;2023-01-25T08:07:19;103058.09;;;3.54;73.82
41596;BME280;27283;52.504;13.358;2023-01-25T08:09:51;103063.34;;;3.56;74.70
41596;BME280;27283;52.504;13.358;2023-01-25T08:12:22;103056.75;;;3.22;75.75
41596;BME280;27283;52.504;13.358;2023-01-25T08:14:57;103051.16;;;3.06;77.10
41596;BME280;27283;52.504;13.358;2023-01-25T08:17:29;103050.75;;;2.95;78.01
41596;BME280;27283;52.504;13.358;2023-01-25T08:20:07;103042.91;;;3.36;76.57
41596;BME280;27283;52.504;13.358;2023-01-25T08:22:40;103049.59;;;3.46;75.83
41596;BME280;27283;52.504;13.358;2023-01-25T08:25:12;103044.84;;;3.75;74.78
41596;BME280;27283;52.504;13.358;2023-01-25T08:27:44;103041.13;;;4.20;72.87
41596;BME280;27283;52.504;13.358;2023-01-25T08:30:16;103052.25;;;4.10;73.05
41596;BME280;27283;52.504;13.358;2023-01-25T08:32:48;103044.72;;;3.78;74.36
41596;BME280;27283;52.504;13.358;2023-01-25T08:35:23;103048.34;;;3.55;75.29
41596;BME280;27283;52.504;13.358;2023-01-25T08:37:55;103042.41;;;3.48;75.85
41596;BME280;27283;52.504;13.358;2023-01-25T08:40:27;103047.56;;;3.73;75.24
41596;BME280;27283;52.504;13.358;2023-01-25T08:42:59;103050.50;;;3.88;74.16
41596;BME280;27283;52.504;13.358;2023-01-25T08:45:31;103049.38;;;4.14;73.02
41596;BME280;27283;52.504;13.358;2023-01-25T08:48:04;103050.31;;;4.13;72.88
41596;BME280;27283;52.504;13.358;2023-01-25T08:50:44;103037.34;;;4.05;73.06
41596;BME280;27283;52.504;13.358;2023-01-25T08:53:16;103035.38;;;3.25;75.73
41596;BME280;27283;52.504;13.358;2023-01-25T08:55:49;103036.00;;;3.10;76.60
41596;BME280;27283;52.504;13.358;2023-01-25T08:58:20;103034.25;;;3.31;76.48
41596;BME280;27283;52.504;13.358;2023-01-25T09:00:52;103037.78;;;3.53;75.70
41596;BME280;27283;52.504;13.358;2023-01-25T09:03:24;103037.84;;;3.72;75.10
41596;BME280;27283;52.504;13.358;2023-01-25T09:05:58;103031.50;;;3.97;74.20
41596;BME280;27283;52.504;13.358;2023-01-25T09:08:31;103035.81;;;3.79;74.56
41596;BME280;27283;52.504;13.358;2023-01-25T09:11:04;103029.94;;;3.71;74.86
41596;BME280;27283;52.504;13.358;2023-01-25T09:13:37;103035.38;;;3.68;74.79
41596;BME280;27283;52.504;13.358;2023-01-25T09:16:13;103035.72;;;4.01;74.10
41596;BME280;27283;52.504;13.358;2023-01-25T09:18:45;103044.50;;;3.83;74.39
41596;BME280;27283;52.504;13.358;2023-01-25T09:21:21;103041.44;;;3.92;73.75
41596;BME280;27283;52.504;13.358;2023-01-25T09:23:54;103037.59;;;3.79;73.84
41596;BME280;27283;52.504;13.358;2023-01-25T09:26:38;103033.97;;;3.59;74.53
41596;BME280;27283;52.504;13.358;2023-01-25T09:29:17;103030.41;;;2.94;78.00
41596;BME280;27283;52.504;13.358;2023-01-25T09:31:49;103025.59;;;3.04;78.02
41596;BME280;27283;52.504;13.358;2023-01-25T09:34:21;103026.41;;;3.28;77.18
41596;BME280;27283;52.504;13.358;2023-01-25T09:36:55;103025.53;;;3.05;77.60
41596;BME280;27283;52.504;13.358;2023-01-25T09:39:27;103027.63;;;2.73;78.98
41596;BME280;27283;52.504;13.358;2023-01-25T09:42:16;103023.41;;;2.91;77.93
41596;BME280;27283;52.504;13.358;2023-01-25T09:45:10;103014.31;;;2.97;77.96
41596;BME280;27283;52.504;13.358;2023-01-25T09:47:52;103004.38;;;3.24;77.61
41596;BME280;27283;52.504;13.358;2023-01-25T09:50:37;103005.47;;;3.41;76.16
41596;BME280;27283;52.504;13.358;2023-01-25T09:53:20;103003.72;;;3.62;75.46
41596;BME280;27283;52.504;13.358;2023-01-25T09:55:54;102997.03;;;3.94;74.04
41596;BME280;27283;52.504;13.358;2023-01-25T09:58:32;103006.91;;;3.90;74.52
41596;BME280;27283;52.504;13.358;2023-01-25T10:01:13;103001.91;;;3.62;75.56
41596;BME280;27283;52.504;13.358;2023-01-25T10:03:57;103005.84;;;3.74;75.00
41596;BME280;27283;52.504;13.358;2023-01-25T10:06:37;103000.25;;;3.80;74.77
41596;BME280;27283;52.504;13.358;2023-01-25T10:09:36;102995.06;;;3.98;74.67
41596;BME280;27283;52.504;13.358;2023-01-25T10:12:15;102991.84;;;3.91;74.70
41596;BME280;27283;52.504;13.358;2023-01-25T10:14:50;102991.34;;;3.61;75.36
41596;BME280;27283;52.504;13.358;2023-01-25T10:17:29;102989.22;;;3.69;75.15
41596;BME280;27283;52.504;13.358;2023-01-25T10:20:16;102985.03;;;3.84;74.43
41596;BME280;27283;52.504;13.358;2023-01-25T10:23:02;102980.75;;;3.39;75.87
41596;BME280;27283;52.504;13.358;2023-01-25T10:25:45;102974.59;;;3.59;75.16
41596;BME280;27283;52.504;13.358;2023-01-25T10:28:35;102965.88;;;3.96;73.97
41596;BME280;27283;52.504;13.358;2023-01-25T10:31:16;102955.34;;;3.72;74.38
41596;BME280;27283;52.504;13.358;2023-01-25T10:33:49;102955.28;;;3.95;73.88
41596;BME280;27283;52.504;13.358;2023-01-25T10:36:28;102951.16;;;3.46;75.92
41596;BME280;27283;52.504;13.358;2023-01-25T10:39:00;102951.25;;;3.45;76.34
41596;BME280;27283;52.504;13.358;2023-01-25T10:41:50;102940.00;;;3.59;76.16
41596;BME280;27283;52.504;13.358;2023-01-25T10:44:24;102942.75;;;3.97;75.18
41596;BME280;27283;52.504;13.358;2023-01-25T10:47:03;102941.72;;;3.80;75.29
41596;BME280;27283;52.504;13.358;2023-01-25T10:52:57;102936.88;;;3.49;76.00
41596;BME280;27283;52.504;13.358;2023-01-25T10:55:29;102926.63;;;3.60;76.44
41596;BME280;27283;52.504;13.358;2023-01-25T10:58:28;102929.81;;;3.27;77.64
41596;BME280;27283;52.504;13.358;2023-01-25T11:01:01;102927.00;;;3.30;77.50
41596;BME280;27283;52.504;13.358;2023-01-25T11:03:37;102923.19;;;3.15;77.57
41596;BME280;27283;52.504;13.358;2023-01-25T11:06:12;102913.22;;;2.56;80.20
41596;BME280;27283;52.504;13.358;2023-01-25T11:08:44;102908.09;;;2.51;80.87
41596;BME280;27283;52.504;13.358;2023-01-25T11:11:30;102899.13;;;2.76;80.31
41596;BME280;27283;52.504;13.358;2023-01-25T11:14:14;102901.53;;;3.04;79.18
41596;BME280;27283;52.504;13.358;2023-01-25T11:16:47;102904.56;;;3.37;77.75
41596;BME280;27283;52.504;13.358;2023-01-25T11:19:26;102899.31;;;3.57;77.27
41596;BME280;27283;52.504;13.358;2023-01-25T11:22:00;102893.25;;;3.53;76.56
41596;BME280;27283;52.504;13.358;2023-01-25T11:27:40;102872.44;;;3.42;76.92
41596;BME280;27283;52.504;13.358;2023-01-25T11:30:23;102869.81;;;4.01;75.51
41596;BME280;27283;52.504;13.358;2023-01-25T11:32:57;102867.78;;;4.06;74.36
41596;BME280;27283;52.504;13.358;2023-01-25T11:35:32;102857.38;;;3.82;75.58
41596;BME280;27283;52.504;13.358;2023-01-25T11:38:12;102848.31;;;3.26;78.57
41596;BME280;27283;52.504;13.358;2023-01-25T11:40:48;102845.09;;;3.59;77.42
41596;BME280;27283;52.504;13.358;2023-01-25T11:43:37;102840.16;;;3.31;78.33
41596;BME280;27283;52.504;13.358;2023-01-25T11:46:26;102832.81;;;3.76;76.39
41596;BME280;27283;52.504;13.358;2023-01-25T11:49:22;102834.56;;;3.77;75.82
41596;BME280;27283;52.504;13.358;2023-01-25T11:52:08;102825.13;;;3.69;76.14
41596;BME280;27283;52.504;13.358;2023-01-25T11:54:51;102820.69;;;3.70;76.48
41596;BME280;27283;52.504;13.358;2023-01-25T11:57:45;102811.31;;;3.61;76.85
41596;BME280;27283;52.504;13.358;2023-01-25T12:00:41;102814.41;;;3.71;76.04
41596;BME280;27283;52.504;13.358;2023-01-25T12:06:47;102785.31;;;3.08;78.77
41596;BME280;27283;52.504;13.358;2023-01-25T12:09:50;102779.50;;;3.39;78.14
41596;BME280;27283;52.504;13.358;2023-01-25T12:12:42;102778.38;;;3.45;77.50
41596;BME280;27283;52.504;13.358;2023-01-25T12:15:52;102769.81;;;3.57;77.94
41596;BME280;27283;52.504;13.358;2023-01-25T12:19:02;102760.66;;;3.44;77.09
41596;BME280;27283;52.504;13.358;2023-01-25T12:22:01;102754.56;;;3.80;76.43
41596;BME280;27283;52.504;13.358;2023-01-25T12:24:53;102742.97;;;3.03;78.03
41596;BME280;27283;52.504;13.358;2023-01-25T12:27:48;102740.53;;;2.15;83.22
41596;BME280;27283;52.504;13.358;2023-01-25T12:30:41;102748.81;;;2.05;83.85
41596;BME280;27283;52.504;13.358;2023-01-25T12:33:25;102745.06;;;2.11;84.80
41596;BME280;27283;52.504;13.358;2023-01-25T12:36:05;102733.88;;;2.47;83.32
41596;BME280;27283;52.504;13.358;2023-01-25T12:39:03;102729.22;;;3.14;80.73
41596;BME280;27283;52.504;13.358;2023-01-25T12:41:43;102734.81;;;3.47;78.71
41596;BME280;27283;52.504;13.358;2023-01-25T12:44:24;102719.41;;;3.54;78.25
41596;BME280;27283;52.504;13.358;2023-01-25T12:47:10;102714.91;;;3.16;78.52
41596;BME280;27283;52.504;13.358;2023-01-25T12:50:01;102715.59;;;3.41;78.20
41596;BME280;27283;52.504;13.358;2023-01-25T12:52:50;102712.38;;;3.34;78.01
41596;BME280;27283;52.504;13.358;2023-01-25T12:55:30;102706.69;;;3.61;77.67
41596;BME280;27283;52.504;13.358;2023-01-25T12:58:11;102709.47;;;3.58;77.88
41596;BME280;27283;52.504;13.358;2023-01-25T13:01:40;102696.13;;;3.40;78.01
41596;BME280;27283;52.504;13.358;2023-01-25T13:08:09;102697.69;;;3.25;78.24
41596;BME280;27283;52.504;13.358;2023-01-25T13:11:19;102700.84;;;3.33;77.92
41596;BME280;27283;52.504;13.358;2023-01-25T13:14:26;102695.97;;;3.24;78.13
41596;BME280;27283;52.504;13.358;2023-01-25T13:20:52;102696.03;;;3.61;76.38
41596;BME280;27283;52.504;13.358;2023-01-25T13:24:12;102688.31;;;3.37;77.37
41596;BME280;27283;52.504;13.358;2023-01-25T13:27:30;102677.72;;;3.54;77.60
41596;BME280;27283;52.504;13.358;2023-01-25T13:30:33;102669.94;;;3.69;76.95
41596;BME280;27283;52.504;13.358;2023-01-25T13:33:36;102662.25;;;3.63;77.02
41596;BME280;27283;52.504;13.358;2023-01-25T13:36:43;102653.97;;;4.05;75.61
41596;BME280;27283;52.504;13.358;2023-01-25T13:39:48;102650.19;;;3.55;76.58
41596;BME280;27283;52.504;13.358;2023-01-25T13:42:39;102647.88;;;3.29;77.72
41596;BME280;27283;52.504;13.358;2023-01-25T13:45:34;102646.59;;;3.37;77.90
41596;BME280;27283;52.504;13.358;2023-01-25T13:48:42;102643.03;;;3.39;78.11
41596;BME280;27283;52.504;13.358;2023-01-25T13:51:27;102635.88;;;3.39;77.50
41596;BME280;27283;52.504;13.358;2023-01-25T13:54:04;102639.47;;;3.38;77.41
41596;BME280;27283;52.504;13.358;2023-01-25T13:56:39;102628.84;;;3.38;77.45
41596;BME280;27283;52.504;13.358;2023-01-25T13:59:31;102622.50;;;3.60;77.02
41596;BME280;27283;52.504;13.358;2023-01-25T14:02:12;102623.19;;;3.46;77.68